To NAV CANADA Home Page Login to a new session Search on AWWS site Feedback and Comments Disclaimer Vers la page française équivalente Tips FAQ What's new on the site To the Forecasts and Observations / NOTAM section To "File a Flight Plan" website Publications and other links Update of the User's profile FIC Telephone Numbers My Weather Data Folder Route Weather Data Regional Weather Data Local Weather Data To the Forecasts and Observations / NOTAM section
Request Generated 05/25/2017 at 01:15:58 UTC . Weather information available at that time is displayed.

METAR/TAF

ROBERVAL/QC    

METAR CYRJ 250100Z 27004KT 40SM FEW100 BKN220 10/08 A2986 RMK AC1CI5
AC TR SLP118=
METAR CYRJ 250000Z 00000KT 40SM FEW025 BKN220 14/06 A2986 RMK SC1CI6
SLP115 DENSITY ALT 700FT=
METAR CYRJ 242300Z 12003KT 060V160 40SM FEW025 BKN220 16/06 A2985 RMK
SC1CI6 SLP114 DENSITY ALT 800FT=

TAF CYRJ 241939Z 2420/2502 VRB03KT P6SM FEW030
RMK NXT FCST WILL BE ISSUED AT 251145Z=
Your time UTC time
Weather data provided by Environment Canada and NAV CANADA